KEUL

Details ICAO KEUL
Name CALDWELL INDUSTRIAL
Region United States
Timezone America/Boise (UTC-7.0)
Plans Departing 18
Arriving 5
Stats Elevation 2,431 ft / 741 m (AMSL)
Location 43.641847° -116.635763°
Runways 1
Magnetic Variation 13.496° E
Sunrise 2017-12-10 15:10:48 UTC / 2017-12-10 08:10:48 Local
Sunset 2017-12-11 00:11:06 UTC / 2017-12-10 17:11:06 Local
Advertisement - Login to hide

Runways

ID Width Length Bearing (true) Bearing (mag) Surface Threshold Offset Overrun Length
12 100 ft / 30 m 5,496 ft / 1,675 m 135.21° 121.71° Asphalt 0 ft / 0 m 0 ft / 0 m
30 100 ft / 30 m 5,496 ft / 1,675 m 315.22° 301.72° Asphalt 0 ft / 0 m 0 ft / 0 m

Map

Weather


0- 5 10 15 20 25 30 35+ Temperature / ° C

Clouds and Precipitation
Forecast for 2017-12-11 06:00 UTC. Updated an hour ago

Ground ~20,000 ft ~40,000 ft Winds

METAR

KEUL 110156Z AUTO 00000KT 10SM OVC019 M02/M06 A3069 RMK AO2 SLP420 T10221056 FZRANO

TAF

KEUL 102330Z 1100/1124 VRB03KT P6SM OVC015

Frequencies

Recorded 135.07 MHz AWOS 3
Approach 119.60 MHz BOISE APP/DEP
Unicom 122.70 MHz CTAF/UNICOM
Warning: Do not use this data for real-world aviation or navigation. No guarantee of current accuracy is given.